createdAt,value
2023-03-17T00:02:23.211Z,2.83
2023-03-17T00:04:49.611Z,2.80
2023-03-17T00:07:17.063Z,2.55
2023-03-17T00:09:43.373Z,2.83
2023-03-17T00:12:10.691Z,2.75
2023-03-17T00:14:37.135Z,2.63
2023-03-17T00:17:03.528Z,2.75
2023-03-17T00:19:32.043Z,2.60
2023-03-17T00:21:59.022Z,2.72
2023-03-17T00:24:25.879Z,2.95
2023-03-17T00:26:52.634Z,2.72
2023-03-17T00:31:45.690Z,2.65
2023-03-17T00:34:15.592Z,2.90
2023-03-17T00:36:42.546Z,2.60
2023-03-17T00:41:41.734Z,2.40
2023-03-17T00:44:08.159Z,2.78
2023-03-17T00:46:38.137Z,2.90
2023-03-17T00:49:20.932Z,2.78
2023-03-17T00:51:47.988Z,3.28
2023-03-17T00:54:15.566Z,2.67
2023-03-17T00:56:43.670Z,2.60
2023-03-17T00:59:22.200Z,2.80
2023-03-17T01:01:49.053Z,3.00
2023-03-17T01:04:15.724Z,2.80
2023-03-17T01:06:43.149Z,3.00
2023-03-17T01:09:12.789Z,2.72
2023-03-17T01:11:39.345Z,2.88
2023-03-17T01:14:09.498Z,2.58
2023-03-17T01:16:35.914Z,2.65
2023-03-17T01:19:02.407Z,2.90
2023-03-17T01:21:29.474Z,2.78
2023-03-17T01:23:55.993Z,2.70
2023-03-17T01:26:25.722Z,2.80
2023-03-17T01:28:52.616Z,2.53
2023-03-17T01:31:19.489Z,2.53
2023-03-17T01:33:46.151Z,2.47
2023-03-17T01:36:12.594Z,2.75
2023-03-17T01:38:38.896Z,2.88
2023-03-17T01:41:05.353Z,2.70
2023-03-17T01:43:32.166Z,2.58
2023-03-17T01:48:26.408Z,2.70
2023-03-17T01:50:53.738Z,2.70
2023-03-17T01:53:21.368Z,2.92
2023-03-17T01:55:49.376Z,2.90
2023-03-17T01:58:17.047Z,2.35
2023-03-17T02:00:44.083Z,2.83
2023-03-17T02:03:11.534Z,2.33
2023-03-17T02:05:38.569Z,2.40
2023-03-17T02:08:15.113Z,2.78
2023-03-17T02:13:09.767Z,2.47
2023-03-17T02:15:40.735Z,2.60
2023-03-17T02:18:08.136Z,2.80
2023-03-17T02:20:36.404Z,2.80
2023-03-17T02:23:04.253Z,2.30
2023-03-17T02:25:33.233Z,2.45
2023-03-17T02:28:02.104Z,2.53
2023-03-17T02:30:28.930Z,2.63
2023-03-17T02:32:55.505Z,2.63
2023-03-17T02:35:22.258Z,2.78
2023-03-17T02:40:15.256Z,2.60
2023-03-17T02:47:35.739Z,2.38
2023-03-17T02:50:02.176Z,2.42
2023-03-17T02:52:28.564Z,2.60
2023-03-17T02:54:55.176Z,3.00
2023-03-17T02:57:21.964Z,2.55
2023-03-17T03:02:14.718Z,2.03
2023-03-17T03:04:41.883Z,2.13
2023-03-17T03:07:08.800Z,2.33
2023-03-17T03:09:35.370Z,2.40
2023-03-17T03:12:01.869Z,2.55
2023-03-17T03:14:28.225Z,2.60
2023-03-17T03:16:54.834Z,2.22
2023-03-17T03:19:22.309Z,2.05
2023-03-17T03:21:49.139Z,2.15
2023-03-17T03:26:42.361Z,2.05
2023-03-17T03:29:08.999Z,1.85
2023-03-17T03:31:35.369Z,2.20
2023-03-17T03:34:01.714Z,2.25
2023-03-17T03:36:28.508Z,1.90
2023-03-17T03:41:21.306Z,2.03
2023-03-17T03:43:47.657Z,2.40
2023-03-17T03:46:14.059Z,2.08
2023-03-17T03:48:40.444Z,2.30
2023-03-17T03:51:07.004Z,2.20
2023-03-17T03:53:33.426Z,2.10
2023-03-17T03:55:59.797Z,2.15
2023-03-17T03:58:26.157Z,2.33
2023-03-17T04:00:52.516Z,2.13
2023-03-17T04:03:18.878Z,2.17
2023-03-17T04:05:45.457Z,2.50
2023-03-17T04:08:11.901Z,1.92
2023-03-17T04:10:38.231Z,2.42
2023-03-17T04:13:04.671Z,2.67
2023-03-17T04:15:31.128Z,2.40
2023-03-17T04:17:57.561Z,2.30
2023-03-17T04:20:23.891Z,2.13
2023-03-17T04:22:50.292Z,2.25
2023-03-17T04:25:16.696Z,1.90
2023-03-17T04:27:43.177Z,2.10
2023-03-17T04:30:17.051Z,2.30
2023-03-17T04:32:44.050Z,1.92
2023-03-17T04:35:17.329Z,1.90
2023-03-17T04:37:43.656Z,2.20
2023-03-17T04:40:11.005Z,2.28
2023-03-17T04:42:37.548Z,2.30
2023-03-17T04:45:04.591Z,1.98
2023-03-17T04:47:31.087Z,1.90
2023-03-17T04:49:57.469Z,2.28
2023-03-17T04:52:23.863Z,2.10
2023-03-17T04:54:50.419Z,2.28
2023-03-17T04:57:16.828Z,2.13
2023-03-17T04:59:43.180Z,2.50
2023-03-17T05:02:09.550Z,2.20
2023-03-17T05:04:36.236Z,2.10
2023-03-17T05:07:02.846Z,2.35
2023-03-17T05:09:29.196Z,2.42
2023-03-17T05:11:55.922Z,2.28
2023-03-17T05:19:15.389Z,2.15
2023-03-17T05:21:42.558Z,2.10
2023-03-17T05:24:09.180Z,2.88
2023-03-17T05:26:35.904Z,2.03
2023-03-17T05:29:02.360Z,2.15
2023-03-17T05:31:29.792Z,2.10
2023-03-17T05:33:56.537Z,2.50
2023-03-17T05:38:49.051Z,2.15
2023-03-17T05:41:15.709Z,2.15
2023-03-17T05:43:42.744Z,2.15
2023-03-17T05:46:09.193Z,2.38
2023-03-17T05:48:36.358Z,2.40
2023-03-17T05:51:02.797Z,2.50
2023-03-17T05:53:29.593Z,2.70
2023-03-17T05:58:22.597Z,2.40
2023-03-17T06:00:48.952Z,1.98
2023-03-17T06:03:15.655Z,2.13
2023-03-17T06:08:08.413Z,2.47
2023-03-17T06:10:34.779Z,2.05
2023-03-17T06:13:03.760Z,2.40
2023-03-17T06:15:30.795Z,2.28
2023-03-17T06:17:57.330Z,2.70
2023-03-17T06:20:23.648Z,2.72
2023-03-17T06:23:03.305Z,2.58
2023-03-17T06:25:31.595Z,2.67
2023-03-17T06:27:58.188Z,2.50
2023-03-17T06:30:24.583Z,2.40
2023-03-17T06:32:51.008Z,2.38
2023-03-17T06:35:18.056Z,2.15
2023-03-17T06:37:44.866Z,2.70
2023-03-17T06:42:37.538Z,2.42
2023-03-17T06:45:04.131Z,2.50
2023-03-17T06:47:30.633Z,2.50
2023-03-17T06:49:57.055Z,2.65
2023-03-17T06:52:23.512Z,2.70
2023-03-17T06:54:49.816Z,2.70
2023-03-17T06:57:16.655Z,2.72
2023-03-17T06:59:42.988Z,2.97
2023-03-17T07:02:11.209Z,3.35
2023-03-17T07:04:38.274Z,3.10
2023-03-17T07:07:05.639Z,2.90
2023-03-17T07:09:34.232Z,2.80
2023-03-17T07:12:05.000Z,2.88
2023-03-17T07:14:35.473Z,5.30
2023-03-17T07:17:04.919Z,3.13
2023-03-17T07:19:31.777Z,2.78
2023-03-17T07:21:58.236Z,3.15
2023-03-17T07:24:25.640Z,2.92
2023-03-17T07:26:52.111Z,2.75
2023-03-17T07:29:18.527Z,2.80
2023-03-17T07:31:44.954Z,2.80
2023-03-17T07:34:11.347Z,2.53
2023-03-17T07:36:37.683Z,2.80
2023-03-17T07:39:04.405Z,3.08
2023-03-17T07:43:58.105Z,2.67
2023-03-17T07:46:24.682Z,3.28
2023-03-17T07:51:19.113Z,3.00
2023-03-17T07:53:46.287Z,2.92
2023-03-17T07:56:13.001Z,3.05
2023-03-17T08:01:08.458Z,2.90
2023-03-17T08:03:34.945Z,2.80
2023-03-17T08:06:01.512Z,2.95
2023-03-17T08:08:28.160Z,2.90
2023-03-17T08:13:20.869Z,5.30
2023-03-17T08:15:47.235Z,2.92
2023-03-17T08:18:13.687Z,3.50
2023-03-17T08:20:40.681Z,3.10
2023-03-17T08:23:07.298Z,2.83
2023-03-17T08:30:27.142Z,2.80
2023-03-17T08:32:54.653Z,3.08
2023-03-17T08:35:21.106Z,2.90
2023-03-17T08:37:47.637Z,3.03
2023-03-17T08:40:17.052Z,3.00
2023-03-17T08:42:44.048Z,3.00
2023-03-17T08:45:11.070Z,3.20
2023-03-17T08:47:38.343Z,3.08
2023-03-17T08:50:06.604Z,3.05
2023-03-17T08:52:33.979Z,3.08
2023-03-17T08:55:00.784Z,3.00
2023-03-17T08:57:28.045Z,2.95
2023-03-17T08:59:54.408Z,3.20
2023-03-17T09:02:21.311Z,3.17
2023-03-17T09:04:48.204Z,3.17
2023-03-17T09:07:15.026Z,3.33
2023-03-17T09:09:42.290Z,3.10
2023-03-17T09:12:09.301Z,3.00
2023-03-17T09:14:43.364Z,3.20
2023-03-17T09:17:11.175Z,3.00
2023-03-17T09:19:38.784Z,3.17
2023-03-17T09:22:05.232Z,3.40
2023-03-17T09:24:31.850Z,3.38
2023-03-17T09:29:26.423Z,3.40
2023-03-17T09:41:44.137Z,3.22
2023-03-17T09:44:20.733Z,3.47
2023-03-17T09:47:17.364Z,3.47
2023-03-17T09:49:49.167Z,3.65
2023-03-17T09:52:16.754Z,3.40
2023-03-17T09:54:43.324Z,3.42
2023-03-17T10:07:00.114Z,3.40
2023-03-17T10:09:41.559Z,3.20
2023-03-17T10:12:07.954Z,3.22
2023-03-17T10:14:35.240Z,3.78
2023-03-17T10:17:04.114Z,3.45
2023-03-17T10:19:30.529Z,3.50
2023-03-17T10:22:17.609Z,3.25
2023-03-17T10:24:46.629Z,3.20
2023-03-17T10:27:16.261Z,3.13
2023-03-17T10:29:42.781Z,3.50
2023-03-17T10:37:06.525Z,2.78
2023-03-17T10:39:41.494Z,3.17
2023-03-17T10:42:09.483Z,3.40
2023-03-17T10:44:41.993Z,3.90
2023-03-17T10:47:20.356Z,3.17
2023-03-17T10:49:46.991Z,3.33
2023-03-17T10:52:18.825Z,3.60
2023-03-17T10:54:49.018Z,3.72
2023-03-17T10:57:15.846Z,3.17
2023-03-17T10:59:44.457Z,3.20
2023-03-17T11:02:16.910Z,3.17
2023-03-17T11:04:43.306Z,3.05
2023-03-17T11:07:15.471Z,3.67
2023-03-17T11:09:41.885Z,3.50
2023-03-17T11:12:19.050Z,4.10
2023-03-17T11:14:45.362Z,3.60
2023-03-17T11:17:20.681Z,3.53
2023-03-17T11:19:55.584Z,3.50
2023-03-17T11:22:29.056Z,3.33
2023-03-17T11:25:01.627Z,3.80
2023-03-17T11:27:29.161Z,3.60
2023-03-17T11:30:14.835Z,3.53
2023-03-17T11:32:56.311Z,3.80
2023-03-17T11:35:39.636Z,3.83
2023-03-17T11:38:10.988Z,3.75
2023-03-17T11:41:00.631Z,3.65
2023-03-17T11:43:34.467Z,3.65
2023-03-17T11:46:18.653Z,4.60
2023-03-17T11:48:55.128Z,3.70
2023-03-17T11:51:27.822Z,3.97
2023-03-17T11:53:54.608Z,4.13
2023-03-17T11:56:24.003Z,3.85
2023-03-17T11:58:53.280Z,3.85
2023-03-17T12:01:23.655Z,3.90
2023-03-17T12:04:09.223Z,4.10
2023-03-17T12:06:39.594Z,4.10
2023-03-17T12:09:13.037Z,3.75
2023-03-17T12:11:41.469Z,4.18
2023-03-17T12:14:20.382Z,4.05
2023-03-17T12:16:54.393Z,4.10
2023-03-17T12:19:50.216Z,4.25
2023-03-17T12:22:26.674Z,3.90
2023-03-17T12:25:05.688Z,3.70
2023-03-17T12:27:33.867Z,4.85
2023-03-17T12:30:02.475Z,4.35
2023-03-17T12:32:42.043Z,4.18
2023-03-17T12:35:22.305Z,4.72
2023-03-17T12:37:49.050Z,4.35
2023-03-17T12:40:18.430Z,4.53
2023-03-17T12:42:56.831Z,4.43
2023-03-17T12:45:35.840Z,4.70
2023-03-17T12:48:14.249Z,4.32
2023-03-17T12:51:06.322Z,4.30
2023-03-17T12:53:37.761Z,4.38
2023-03-17T12:56:27.428Z,4.75
2023-03-17T12:58:58.661Z,4.40
2023-03-17T13:01:37.839Z,4.78
2023-03-17T13:04:07.089Z,4.80
2023-03-17T13:06:38.197Z,4.40
2023-03-17T13:09:30.258Z,4.70
2023-03-17T13:11:58.135Z,4.40
2023-03-17T13:14:27.005Z,5.22
2023-03-17T13:17:04.509Z,5.38
2023-03-17T13:19:32.394Z,4.53
2023-03-17T13:22:05.123Z,5.05
2023-03-17T13:24:39.961Z,4.35
2023-03-17T13:27:10.086Z,4.82
2023-03-17T13:29:36.435Z,5.20
2023-03-17T13:34:29.010Z,4.95
2023-03-17T13:39:44.949Z,5.43
2023-03-17T13:42:18.137Z,4.90
2023-03-17T13:44:47.905Z,4.63
2023-03-17T13:47:23.584Z,4.35
2023-03-17T13:49:51.525Z,5.10
2023-03-17T13:52:27.656Z,5.18
2023-03-17T13:57:23.484Z,5.00
2023-03-17T14:00:08.765Z,4.57
2023-03-17T14:02:36.415Z,4.85
2023-03-17T14:05:04.563Z,5.00
2023-03-17T14:07:49.581Z,5.03
2023-03-17T14:10:17.023Z,4.40
2023-03-17T14:12:58.921Z,4.63
2023-03-17T14:15:32.645Z,4.55
2023-03-17T14:18:03.000Z,4.68
2023-03-17T14:20:29.488Z,4.60
2023-03-17T14:22:58.909Z,4.88
2023-03-17T14:25:27.776Z,5.00
2023-03-17T14:27:56.044Z,4.85
2023-03-17T14:30:27.148Z,6.07
2023-03-17T14:32:59.738Z,4.93
2023-03-17T14:35:29.817Z,5.13
2023-03-17T14:37:56.375Z,4.80
2023-03-17T14:42:49.203Z,5.40
2023-03-17T14:45:26.855Z,5.03
2023-03-17T14:47:53.593Z,5.05
2023-03-17T14:50:25.907Z,5.05
2023-03-17T14:52:52.429Z,5.03
2023-03-17T14:55:19.790Z,4.80
2023-03-17T14:57:51.140Z,4.80
2023-03-17T15:00:21.790Z,4.88
2023-03-17T15:02:57.692Z,4.82
2023-03-17T15:05:37.151Z,5.10
2023-03-17T15:08:23.431Z,4.85
2023-03-17T15:10:49.941Z,4.72
2023-03-17T15:13:16.360Z,4.70
2023-03-17T15:15:44.217Z,4.63
2023-03-17T15:18:13.108Z,4.55
2023-03-17T15:20:41.467Z,4.53
2023-03-17T15:23:18.677Z,4.80
2023-03-17T15:25:51.093Z,4.60
2023-03-17T15:28:18.994Z,4.88
2023-03-17T15:30:52.813Z,4.82
2023-03-17T15:33:28.320Z,4.68
2023-03-17T15:35:56.469Z,5.37
2023-03-17T15:38:23.318Z,4.82
2023-03-17T15:40:50.205Z,4.63
2023-03-17T15:43:17.340Z,5.63
2023-03-17T15:45:45.421Z,4.75
2023-03-17T15:48:23.669Z,5.10
2023-03-17T15:50:50.676Z,5.00
2023-03-17T15:53:17.844Z,5.07
2023-03-17T15:55:44.619Z,5.03
2023-03-17T15:58:10.975Z,4.88
2023-03-17T16:03:24.388Z,4.75
2023-03-17T16:05:50.738Z,4.80
2023-03-17T16:10:45.194Z,5.00
2023-03-17T16:13:12.034Z,5.10
2023-03-17T16:15:39.368Z,5.47
2023-03-17T16:18:08.160Z,4.78
2023-03-17T16:20:38.418Z,5.38
2023-03-17T16:23:07.562Z,4.82
2023-03-17T16:25:34.152Z,5.25
2023-03-17T16:28:01.538Z,5.72
2023-03-17T16:30:30.962Z,5.72
2023-03-17T16:32:59.757Z,6.22
2023-03-17T16:35:26.307Z,5.75
2023-03-17T16:37:54.144Z,8.32
2023-03-17T16:40:22.582Z,6.22
2023-03-17T16:42:48.999Z,6.32
2023-03-17T16:47:41.632Z,7.25
2023-03-17T16:50:14.343Z,7.53
2023-03-17T16:52:40.676Z,7.15
2023-03-17T16:55:09.299Z,7.97
2023-03-17T16:57:36.681Z,6.75
2023-03-17T17:00:04.227Z,6.75
2023-03-17T17:02:30.770Z,6.78
2023-03-17T17:04:57.218Z,6.97
2023-03-17T17:09:49.865Z,6.18
2023-03-17T17:12:16.253Z,6.20
2023-03-17T17:17:09.382Z,6.38
2023-03-17T17:19:35.806Z,5.97
2023-03-17T17:26:54.753Z,8.35
2023-03-17T17:29:21.134Z,10.02
2023-03-17T17:31:47.563Z,8.80
2023-03-17T17:36:40.732Z,7.70
2023-03-17T17:39:07.064Z,8.13
2023-03-17T17:41:34.304Z,8.57
2023-03-17T17:44:00.711Z,8.50
2023-03-17T17:46:27.088Z,8.85
2023-03-17T17:48:53.481Z,8.77
2023-03-17T17:51:19.855Z,8.50
2023-03-17T17:53:46.183Z,10.82
2023-03-17T17:56:16.740Z,10.13
2023-03-17T17:58:43.611Z,10.70
2023-03-17T18:01:12.474Z,10.63
2023-03-17T18:03:41.484Z,10.52
2023-03-17T18:06:07.973Z,10.35
2023-03-17T18:08:34.707Z,10.65
2023-03-17T18:11:01.057Z,9.98
2023-03-17T18:13:27.376Z,9.77
2023-03-17T18:15:53.956Z,9.80
2023-03-17T18:20:46.745Z,9.30
2023-03-17T18:30:35.655Z,8.82
2023-03-17T18:33:07.842Z,9.23
2023-03-17T18:35:34.405Z,8.77
2023-03-17T18:40:27.640Z,8.85
2023-03-17T18:45:20.685Z,9.05
2023-03-17T18:47:47.054Z,8.82
2023-03-17T18:50:15.377Z,8.55
2023-03-17T18:52:42.674Z,9.00
2023-03-17T18:55:10.004Z,8.80
2023-03-17T18:57:37.073Z,8.50
2023-03-17T19:00:05.022Z,8.88
2023-03-17T19:02:31.676Z,8.90
2023-03-17T19:04:58.084Z,8.93
2023-03-17T19:07:24.426Z,9.18
2023-03-17T19:09:50.947Z,8.98
2023-03-17T19:17:10.206Z,8.93
2023-03-17T19:19:36.900Z,7.90
2023-03-17T19:22:03.938Z,7.45
2023-03-17T19:24:31.538Z,6.30
2023-03-17T19:26:57.892Z,6.15
2023-03-17T19:29:24.312Z,5.70
2023-03-17T19:31:50.669Z,5.82
2023-03-17T19:34:17.084Z,5.15
2023-03-17T19:36:45.724Z,5.20
2023-03-17T19:39:12.771Z,4.00
2023-03-17T19:41:39.189Z,4.07
2023-03-17T19:44:08.279Z,4.47
2023-03-17T19:46:37.688Z,4.30
2023-03-17T19:49:04.812Z,5.00
2023-03-17T19:51:32.869Z,4.55
2023-03-17T19:53:59.269Z,4.43
2023-03-17T19:56:25.806Z,4.07
2023-03-17T20:03:44.876Z,4.20
2023-03-17T20:06:12.281Z,4.00
2023-03-17T20:08:40.439Z,4.03
2023-03-17T20:11:07.731Z,4.28
2023-03-17T20:13:34.715Z,4.60
2023-03-17T20:16:01.751Z,4.25
2023-03-17T20:18:30.711Z,4.60
2023-03-17T20:20:58.595Z,4.20
2023-03-17T20:23:25.086Z,4.65
2023-03-17T20:25:58.405Z,4.60
2023-03-17T20:28:25.160Z,4.88
2023-03-17T20:30:51.616Z,4.75
2023-03-17T20:33:18.068Z,5.30
2023-03-17T20:35:46.785Z,5.07
2023-03-17T20:38:13.496Z,5.40
2023-03-17T20:45:32.535Z,5.32
2023-03-17T20:47:58.973Z,5.35
2023-03-17T20:50:25.399Z,5.30
2023-03-17T20:52:52.331Z,5.60
2023-03-17T20:55:19.703Z,6.10
2023-03-17T20:57:47.497Z,5.63
2023-03-17T21:00:18.310Z,6.18
2023-03-17T21:02:45.655Z,5.93
2023-03-17T21:05:16.209Z,5.88
2023-03-17T21:07:43.292Z,6.35
2023-03-17T21:10:09.863Z,6.10
2023-03-17T21:15:03.595Z,7.20
2023-03-17T21:17:30.125Z,6.15
2023-03-17T21:22:23.263Z,5.75
2023-03-17T21:24:49.752Z,5.88
2023-03-17T21:27:17.160Z,6.43
2023-03-17T21:29:43.707Z,6.35
2023-03-17T21:32:10.305Z,5.97
2023-03-17T21:37:03.531Z,6.65
2023-03-17T21:39:29.973Z,6.22
2023-03-17T21:41:56.885Z,6.25
2023-03-17T21:44:23.332Z,6.20
2023-03-17T21:46:49.736Z,6.50
2023-03-17T21:49:16.722Z,6.40
2023-03-17T21:51:44.189Z,6.28
2023-03-17T21:54:10.583Z,6.40
2023-03-17T21:56:37.859Z,6.43
2023-03-17T21:59:05.645Z,7.03
2023-03-17T22:01:31.983Z,6.80
2023-03-17T22:03:59.448Z,7.22
2023-03-17T22:06:27.427Z,6.03
2023-03-17T22:08:54.063Z,6.00
2023-03-17T22:13:47.057Z,6.30
2023-03-17T22:16:13.948Z,6.30
2023-03-17T22:18:40.488Z,6.53
2023-03-17T22:21:08.159Z,6.63
2023-03-17T22:23:39.613Z,6.07
2023-03-17T22:26:06.587Z,7.05
2023-03-17T22:28:32.956Z,6.80
2023-03-17T22:30:59.349Z,6.50
2023-03-17T22:33:25.723Z,7.03
2023-03-17T22:35:52.133Z,7.00
2023-03-17T22:38:18.600Z,7.28
2023-03-17T22:40:44.897Z,6.40
2023-03-17T22:43:11.801Z,6.97
2023-03-17T22:45:38.201Z,7.35
2023-03-17T22:48:04.749Z,7.55
2023-03-17T22:52:57.844Z,7.38
2023-03-17T22:55:24.284Z,8.15
2023-03-17T22:57:50.710Z,8.35
2023-03-17T23:00:19.932Z,7.80
2023-03-17T23:02:46.565Z,8.38
2023-03-17T23:05:13.518Z,8.23
2023-03-17T23:07:50.436Z,8.38
2023-03-17T23:10:18.062Z,8.20
2023-03-17T23:12:44.753Z,7.88
2023-03-17T23:15:11.437Z,7.70
2023-03-17T23:17:38.456Z,8.13
2023-03-17T23:20:05.500Z,8.45
2023-03-17T23:22:32.169Z,7.60
2023-03-17T23:32:18.043Z,7.47
2023-03-17T23:37:10.942Z,7.65
2023-03-17T23:39:37.315Z,7.38
2023-03-17T23:42:04.063Z,8.13
2023-03-17T23:44:30.853Z,8.40
2023-03-17T23:46:57.291Z,8.40
2023-03-17T23:49:24.240Z,8.55
2023-03-17T23:51:50.545Z,8.48
2023-03-17T23:54:16.909Z,8.80
2023-03-17T23:56:43.207Z,8.90
2023-03-17T23:59:09.595Z,8.95
